createdAt,value
2017-08-07T00:00:31.496Z,15.38
2017-08-07T00:01:28.725Z,15.38
2017-08-07T00:02:25.964Z,15.36
2017-08-07T00:03:23.217Z,15.33
2017-08-07T00:04:20.456Z,15.32
2017-08-07T00:05:17.665Z,15.31
2017-08-07T00:06:14.916Z,15.30
2017-08-07T00:07:12.125Z,15.28
2017-08-07T00:08:09.382Z,15.26
2017-08-07T00:09:06.602Z,15.24
2017-08-07T00:10:03.844Z,15.23
2017-08-07T00:11:01.072Z,15.20
2017-08-07T00:11:58.323Z,15.20
2017-08-07T00:12:55.567Z,15.19
2017-08-07T00:13:52.826Z,15.17
2017-08-07T00:14:50.037Z,15.16
2017-08-07T00:15:47.268Z,15.14
2017-08-07T00:16:44.475Z,15.12
2017-08-07T00:17:41.720Z,15.11
2017-08-07T00:18:38.960Z,15.10
2017-08-07T00:19:36.216Z,15.08
2017-08-07T00:20:33.452Z,15.06
2017-08-07T00:21:30.684Z,15.04
2017-08-07T00:22:27.909Z,15.05
2017-08-07T00:23:25.184Z,15.02
2017-08-07T00:24:22.404Z,15.02
2017-08-07T00:25:19.668Z,14.99
2017-08-07T00:26:16.913Z,14.99
2017-08-07T00:27:14.177Z,14.97
2017-08-07T00:28:11.425Z,14.96
2017-08-07T00:29:08.700Z,14.95
2017-08-07T00:30:05.921Z,14.93
2017-08-07T00:31:03.156Z,14.92
2017-08-07T00:32:00.384Z,14.90
2017-08-07T00:32:57.628Z,14.89
2017-08-07T00:33:54.868Z,14.88
2017-08-07T00:34:52.105Z,14.86
2017-08-07T00:35:49.323Z,14.83
2017-08-07T00:36:46.568Z,14.83
2017-08-07T00:37:43.787Z,14.83
2017-08-07T00:38:41.053Z,14.80
2017-08-07T00:39:38.261Z,14.78
2017-08-07T00:40:35.513Z,14.77
2017-08-07T00:41:32.724Z,14.76
2017-08-07T00:42:29.971Z,14.72
2017-08-07T00:43:27.192Z,14.72
2017-08-07T00:44:24.449Z,14.73
2017-08-07T00:45:21.688Z,14.70
2017-08-07T00:46:18.943Z,14.69
2017-08-07T00:47:16.157Z,14.68
2017-08-07T00:48:13.416Z,14.66
2017-08-07T00:49:10.657Z,14.64
2017-08-07T00:50:07.901Z,14.63
2017-08-07T00:51:05.149Z,14.62
2017-08-07T00:52:02.394Z,14.60
2017-08-07T00:52:59.604Z,14.59
2017-08-07T00:53:56.869Z,14.59
2017-08-07T00:54:54.092Z,14.58
2017-08-07T00:55:51.339Z,14.55
2017-08-07T00:56:48.580Z,14.54
2017-08-07T00:57:45.832Z,14.53
2017-08-07T00:58:43.064Z,14.50
2017-08-07T00:59:40.324Z,14.50
2017-08-07T01:00:37.545Z,14.49
2017-08-07T01:01:34.809Z,14.47
2017-08-07T01:02:32.040Z,14.46
2017-08-07T01:03:29.292Z,14.42
2017-08-07T01:04:26.528Z,14.42
2017-08-07T01:05:23.784Z,14.40
2017-08-07T01:06:21.012Z,14.39
2017-08-07T01:07:18.244Z,14.38
2017-08-07T01:08:15.462Z,14.37
2017-08-07T01:09:12.741Z,14.36
2017-08-07T01:10:10.002Z,14.35
2017-08-07T01:11:07.336Z,14.31
2017-08-07T01:12:04.560Z,14.32
2017-08-07T01:13:01.816Z,14.31
2017-08-07T01:13:59.044Z,14.30
2017-08-07T01:14:56.323Z,14.28
2017-08-07T01:15:53.558Z,14.27
2017-08-07T01:16:50.805Z,14.25
2017-08-07T01:17:48.037Z,14.24
2017-08-07T01:18:45.281Z,14.24
2017-08-07T01:19:42.521Z,14.21
2017-08-07T01:20:39.903Z,14.21
2017-08-07T01:21:37.125Z,14.20
2017-08-07T01:22:34.365Z,14.17
2017-08-07T01:23:31.592Z,14.16
2017-08-07T01:24:28.884Z,14.14
2017-08-07T01:25:26.161Z,14.13
2017-08-07T01:26:23.476Z,14.11
2017-08-07T01:27:20.704Z,14.11
2017-08-07T01:28:17.952Z,14.10
2017-08-07T01:29:15.201Z,14.07
2017-08-07T01:30:12.497Z,14.07
2017-08-07T01:31:09.743Z,14.06
2017-08-07T01:32:06.988Z,14.04
2017-08-07T01:33:04.264Z,14.03
2017-08-07T01:34:01.542Z,14.02
2017-08-07T01:34:58.776Z,14.00
2017-08-07T01:35:56.008Z,13.99
2017-08-07T01:36:53.236Z,13.98
2017-08-07T01:37:50.483Z,13.97
2017-08-07T01:38:47.722Z,13.94
2017-08-07T01:39:44.987Z,13.93
2017-08-07T01:40:42.244Z,13.91
2017-08-07T01:41:39.529Z,13.91
2017-08-07T01:42:36.756Z,13.90
2017-08-07T01:43:34.014Z,13.88
2017-08-07T01:44:31.268Z,13.87
2017-08-07T01:45:28.537Z,13.87
2017-08-07T01:46:25.748Z,13.85
2017-08-07T01:47:23.020Z,13.83
2017-08-07T01:48:20.256Z,13.82
2017-08-07T01:49:17.520Z,13.79
2017-08-07T01:50:14.772Z,13.79
2017-08-07T01:51:12.043Z,13.78
2017-08-07T01:52:09.288Z,13.77
2017-08-07T01:53:06.532Z,13.76
2017-08-07T01:54:03.758Z,13.74
2017-08-07T01:55:01.021Z,13.73
2017-08-07T01:55:58.295Z,13.72
2017-08-07T01:56:55.557Z,13.70
2017-08-07T01:57:53.012Z,13.69
2017-08-07T01:58:50.257Z,13.67
2017-08-07T01:59:47.484Z,13.66
2017-08-07T02:00:44.752Z,13.67
2017-08-07T02:01:41.964Z,13.63
2017-08-07T02:02:39.217Z,13.62
2017-08-07T02:03:36.440Z,13.61
2017-08-07T02:04:33.688Z,13.61
2017-08-07T02:05:30.948Z,13.60
2017-08-07T02:06:28.206Z,13.59
2017-08-07T02:07:25.413Z,13.56
2017-08-07T02:08:22.663Z,13.56
2017-08-07T02:09:19.884Z,13.54
2017-08-07T02:10:17.137Z,13.53
2017-08-07T02:11:14.380Z,13.52
2017-08-07T02:12:11.629Z,13.50
2017-08-07T02:13:08.852Z,13.49
2017-08-07T02:14:06.108Z,13.48
2017-08-07T02:15:03.329Z,13.48
2017-08-07T02:16:00.605Z,13.45
2017-08-07T02:16:57.829Z,13.42
2017-08-07T02:17:55.087Z,13.43
2017-08-07T02:18:52.303Z,13.40
2017-08-07T02:19:49.560Z,13.41
2017-08-07T02:20:46.817Z,13.39
2017-08-07T02:21:44.085Z,13.38
2017-08-07T02:22:41.300Z,13.37
2017-08-07T02:23:38.553Z,13.36
2017-08-07T02:24:35.782Z,13.35
2017-08-07T02:25:33.053Z,13.35
2017-08-07T02:26:30.320Z,13.32
2017-08-07T02:27:27.607Z,13.32
2017-08-07T02:28:24.840Z,13.32
2017-08-07T02:29:22.075Z,13.30
2017-08-07T02:30:19.301Z,13.29
2017-08-07T02:31:16.581Z,13.26
2017-08-07T02:32:13.816Z,13.26
2017-08-07T02:33:11.181Z,13.26
2017-08-07T02:34:08.410Z,13.24
2017-08-07T02:35:05.660Z,13.22
2017-08-07T02:36:02.905Z,13.22
2017-08-07T02:37:00.171Z,13.21
2017-08-07T02:37:57.404Z,13.18
2017-08-07T02:38:54.653Z,13.18
2017-08-07T02:39:51.880Z,13.16
2017-08-07T02:40:49.133Z,13.16
2017-08-07T02:41:46.388Z,13.15
2017-08-07T02:42:43.630Z,13.15
2017-08-07T02:43:40.853Z,13.13
2017-08-07T02:44:38.148Z,13.12
2017-08-07T02:45:35.369Z,13.11
2017-08-07T02:46:32.647Z,13.11
2017-08-07T02:47:29.867Z,13.08
2017-08-07T02:48:27.108Z,13.08
2017-08-07T02:49:24.328Z,13.06
2017-08-07T02:50:21.576Z,13.06
2017-08-07T02:51:18.796Z,13.04
2017-08-07T02:52:16.067Z,13.02
2017-08-07T02:53:13.438Z,13.02
2017-08-07T02:54:10.685Z,13.01
2017-08-07T02:55:07.900Z,12.99
2017-08-07T02:56:05.156Z,12.98
2017-08-07T02:57:02.416Z,12.97
2017-08-07T02:57:59.668Z,12.95
2017-08-07T02:58:56.951Z,12.95
2017-08-07T02:59:54.208Z,12.93
2017-08-07T03:00:51.440Z,12.92
2017-08-07T03:01:48.729Z,12.92
2017-08-07T03:02:45.960Z,12.90
2017-08-07T03:03:43.217Z,12.90
2017-08-07T03:04:40.440Z,12.88
2017-08-07T03:05:37.691Z,12.87
2017-08-07T03:06:34.913Z,12.85
2017-08-07T03:07:32.187Z,12.84
2017-08-07T03:08:29.407Z,12.85
2017-08-07T03:09:26.654Z,12.84
2017-08-07T03:10:23.868Z,12.81
2017-08-07T03:11:21.238Z,12.80
2017-08-07T03:12:18.484Z,12.79
2017-08-07T03:13:15.761Z,12.77
2017-08-07T03:14:12.988Z,12.77
2017-08-07T03:15:10.236Z,12.76
2017-08-07T03:16:07.463Z,12.74
2017-08-07T03:17:04.748Z,12.73
2017-08-07T03:18:01.968Z,12.73
2017-08-07T03:18:59.221Z,12.71
2017-08-07T03:19:56.442Z,12.72
2017-08-07T03:20:53.694Z,12.69
2017-08-07T03:21:50.921Z,12.69
2017-08-07T03:22:48.191Z,12.69
2017-08-07T03:23:45.432Z,12.67
2017-08-07T03:24:42.688Z,12.67
2017-08-07T03:25:39.915Z,12.63
2017-08-07T03:26:37.184Z,12.64
2017-08-07T03:27:34.424Z,12.62
2017-08-07T03:28:31.680Z,12.62
2017-08-07T03:29:28.900Z,12.60
2017-08-07T03:30:26.152Z,12.59
2017-08-07T03:31:23.380Z,12.58
2017-08-07T03:32:20.657Z,12.58
2017-08-07T03:33:17.872Z,12.57
2017-08-07T03:34:15.116Z,12.55
2017-08-07T03:35:12.345Z,12.55
2017-08-07T03:36:09.612Z,12.54
2017-08-07T03:37:06.828Z,12.52
2017-08-07T03:38:04.090Z,12.50
2017-08-07T03:39:01.320Z,12.51
2017-08-07T03:39:58.625Z,12.49
2017-08-07T03:40:55.861Z,12.47
2017-08-07T03:41:53.109Z,12.48
2017-08-07T03:42:50.328Z,12.47
2017-08-07T03:43:47.581Z,12.46
2017-08-07T03:44:44.806Z,12.45
2017-08-07T03:45:42.045Z,12.43
2017-08-07T03:46:39.264Z,12.43
2017-08-07T03:47:36.517Z,12.42
2017-08-07T03:48:33.768Z,12.41
2017-08-07T03:49:31.024Z,12.40
2017-08-07T03:50:28.258Z,12.38
2017-08-07T03:51:25.501Z,12.37
2017-08-07T03:52:22.720Z,12.36
2017-08-07T03:53:19.972Z,12.35
2017-08-07T03:54:17.197Z,12.35
2017-08-07T03:55:14.437Z,12.34
2017-08-07T03:56:11.664Z,12.33
2017-08-07T03:57:08.910Z,12.31
2017-08-07T03:58:06.164Z,12.30
2017-08-07T03:59:03.424Z,12.30
2017-08-07T04:00:00.640Z,12.28
2017-08-07T04:00:57.909Z,12.27
2017-08-07T04:01:55.136Z,12.26
2017-08-07T04:02:52.392Z,12.26
2017-08-07T04:03:49.645Z,12.25
2017-08-07T04:04:46.888Z,12.23
2017-08-07T04:05:44.108Z,12.23
2017-08-07T04:06:41.369Z,12.24
2017-08-07T04:07:38.595Z,12.22
2017-08-07T04:08:35.868Z,12.20
2017-08-07T04:09:33.084Z,12.18
2017-08-07T04:10:30.332Z,12.19
2017-08-07T04:11:27.548Z,12.17
2017-08-07T04:12:24.792Z,12.16
2017-08-07T04:13:22.021Z,12.16
2017-08-07T04:14:19.292Z,12.13
2017-08-07T04:15:16.511Z,12.14
2017-08-07T04:16:13.748Z,12.13
2017-08-07T04:17:10.960Z,12.12
2017-08-07T04:18:08.313Z,12.12
2017-08-07T04:19:05.548Z,12.10
2017-08-07T04:20:03.065Z,12.08
2017-08-07T04:21:00.293Z,12.07
2017-08-07T04:21:57.549Z,12.07
2017-08-07T04:22:54.764Z,12.06
2017-08-07T04:23:52.040Z,12.07
2017-08-07T04:24:49.246Z,12.05
2017-08-07T04:25:46.735Z,12.04
2017-08-07T04:26:44.040Z,12.02
2017-08-07T04:27:41.349Z,12.02
2017-08-07T04:28:38.572Z,12.01
2017-08-07T04:29:35.847Z,12.00
2017-08-07T04:30:33.072Z,11.99
2017-08-07T04:31:30.346Z,11.99
2017-08-07T04:32:27.577Z,11.99
2017-08-07T04:33:24.816Z,11.97
2017-08-07T04:34:22.065Z,11.97
2017-08-07T04:35:19.316Z,11.95
2017-08-07T04:36:16.534Z,11.94
2017-08-07T04:37:13.773Z,11.93
2017-08-07T04:38:10.992Z,11.92
2017-08-07T04:39:08.255Z,11.92
2017-08-07T04:40:05.473Z,11.91
2017-08-07T04:41:02.724Z,11.91
2017-08-07T04:41:59.956Z,11.91
2017-08-07T04:42:57.193Z,11.89
2017-08-07T04:43:54.428Z,11.88
2017-08-07T04:44:51.692Z,11.87
2017-08-07T04:45:48.913Z,11.86
2017-08-07T04:46:46.157Z,11.86
2017-08-07T04:47:43.368Z,11.86
2017-08-07T04:48:40.620Z,11.83
2017-08-07T04:49:37.856Z,11.82
2017-08-07T04:50:35.110Z,11.82
2017-08-07T04:51:32.325Z,11.81
2017-08-07T04:52:29.576Z,11.79
2017-08-07T04:53:26.793Z,11.79
2017-08-07T04:54:24.036Z,11.79
2017-08-07T04:55:21.288Z,11.77
2017-08-07T04:56:18.541Z,11.75
2017-08-07T04:57:15.752Z,11.76
2017-08-07T04:58:13.000Z,11.74
2017-08-07T04:59:10.228Z,11.74
2017-08-07T05:00:07.492Z,11.74
2017-08-07T05:01:04.728Z,11.73
2017-08-07T05:02:01.981Z,11.72
2017-08-07T05:02:59.231Z,11.72
2017-08-07T05:03:56.479Z,11.71
2017-08-07T05:04:53.740Z,11.70
2017-08-07T05:05:50.997Z,11.70
2017-08-07T05:06:48.204Z,11.70
2017-08-07T05:07:45.443Z,11.68
2017-08-07T05:08:42.669Z,11.67
2017-08-07T05:09:39.917Z,11.68
2017-08-07T05:10:37.153Z,11.66
2017-08-07T05:11:34.414Z,11.66
2017-08-07T05:12:31.652Z,11.65
2017-08-07T05:13:28.916Z,11.65
2017-08-07T05:14:26.146Z,11.64
2017-08-07T05:15:23.417Z,11.63
2017-08-07T05:16:20.636Z,11.62
2017-08-07T05:17:17.893Z,11.61
2017-08-07T05:18:15.114Z,11.62
2017-08-07T05:19:12.362Z,11.60
2017-08-07T05:20:09.580Z,11.61
2017-08-07T05:21:06.845Z,11.60
2017-08-07T05:22:04.069Z,11.59
2017-08-07T05:23:01.329Z,11.60
2017-08-07T05:23:58.539Z,11.60
2017-08-07T05:24:55.842Z,11.60
2017-08-07T05:25:53.159Z,11.58
2017-08-07T05:26:50.460Z,11.58
2017-08-07T05:27:47.677Z,11.58
2017-08-07T05:28:44.916Z,11.58
2017-08-07T05:29:42.136Z,11.56
2017-08-07T05:30:39.396Z,11.55
2017-08-07T05:31:36.612Z,11.56
2017-08-07T05:32:33.875Z,11.56
2017-08-07T05:33:31.090Z,11.55
2017-08-07T05:34:28.324Z,11.53
2017-08-07T05:35:25.552Z,11.54
2017-08-07T05:36:22.825Z,11.54
2017-08-07T05:37:20.041Z,11.54
2017-08-07T05:38:17.297Z,11.55
2017-08-07T05:39:14.509Z,11.56
2017-08-07T05:40:11.755Z,11.56
2017-08-07T05:41:08.985Z,11.57
2017-08-07T05:42:06.225Z,11.57
2017-08-07T05:43:03.445Z,11.56
2017-08-07T05:44:00.705Z,11.57
2017-08-07T05:44:57.999Z,11.55
2017-08-07T05:45:55.312Z,11.56
2017-08-07T05:46:52.539Z,11.56
2017-08-07T05:47:49.792Z,11.56
2017-08-07T05:48:47.013Z,11.56
2017-08-07T05:49:44.314Z,11.55
2017-08-07T05:50:41.552Z,11.54
2017-08-07T05:51:38.824Z,11.55
2017-08-07T05:52:36.048Z,11.55
2017-08-07T05:53:33.361Z,11.54
2017-08-07T05:54:30.709Z,11.54
2017-08-07T05:55:27.966Z,11.54
2017-08-07T05:56:25.213Z,11.55
2017-08-07T05:57:22.476Z,11.55
2017-08-07T05:58:19.696Z,11.55
2017-08-07T05:59:16.939Z,11.55
2017-08-07T06:00:14.165Z,11.56
2017-08-07T06:01:11.448Z,11.55
2017-08-07T06:02:08.704Z,11.57
2017-08-07T06:03:05.976Z,11.57
2017-08-07T06:04:03.229Z,11.56
2017-08-07T06:05:00.482Z,11.58
2017-08-07T06:05:57.864Z,11.58
2017-08-07T06:06:55.192Z,11.57
2017-08-07T06:07:52.430Z,11.59
2017-08-07T06:08:49.683Z,11.58
2017-08-07T06:09:46.932Z,11.60
2017-08-07T06:10:44.209Z,11.60
2017-08-07T06:11:41.444Z,11.59
2017-08-07T06:12:38.879Z,11.60
2017-08-07T06:13:36.563Z,11.60
2017-08-07T06:14:33.930Z,11.61
2017-08-07T06:15:31.143Z,11.61
2017-08-07T06:16:28.409Z,11.61
2017-08-07T06:17:25.721Z,11.62
2017-08-07T06:18:23.178Z,11.64
2017-08-07T06:19:20.537Z,11.64
2017-08-07T06:20:17.953Z,11.63
2017-08-07T06:21:15.338Z,11.63
2017-08-07T06:22:15.204Z,11.66
2017-08-07T06:23:16.480Z,11.67
2017-08-07T06:24:13.764Z,11.67
2017-08-07T06:25:11.009Z,11.67
2017-08-07T06:26:08.305Z,11.69
2017-08-07T06:27:05.785Z,11.69
2017-08-07T06:28:03.609Z,11.69
2017-08-07T06:29:01.024Z,11.71
2017-08-07T06:29:58.359Z,11.72
2017-08-07T06:30:55.643Z,11.73
2017-08-07T06:31:52.972Z,11.75
2017-08-07T06:32:50.331Z,11.75
2017-08-07T06:33:47.700Z,11.76
2017-08-07T06:34:44.925Z,11.79
2017-08-07T06:35:42.179Z,11.78
2017-08-07T06:36:39.401Z,11.79
2017-08-07T06:37:36.668Z,11.83
2017-08-07T06:38:33.900Z,11.82
2017-08-07T06:39:31.165Z,11.83
2017-08-07T06:40:28.372Z,11.85
2017-08-07T06:41:25.612Z,11.86
2017-08-07T06:42:22.823Z,11.89
2017-08-07T06:43:20.163Z,11.90
2017-08-07T06:44:17.425Z,11.91
2017-08-07T06:45:14.688Z,11.93
2017-08-07T06:46:11.916Z,11.95
2017-08-07T06:47:09.172Z,11.95
2017-08-07T06:48:06.395Z,11.96
2017-08-07T06:49:03.677Z,11.99
2017-08-07T06:50:00.920Z,12.01
2017-08-07T06:50:58.258Z,12.02
2017-08-07T06:51:55.532Z,12.06
2017-08-07T06:52:52.812Z,12.09
2017-08-07T06:53:51.975Z,12.10
2017-08-07T06:54:49.242Z,12.13
2017-08-07T06:55:46.529Z,12.13
2017-08-07T06:56:43.949Z,12.17
2017-08-07T06:57:41.197Z,12.18
2017-08-07T06:58:38.480Z,12.20
2017-08-07T06:59:35.829Z,12.22
2017-08-07T07:00:33.122Z,12.23
2017-08-07T07:01:30.380Z,12.27
2017-08-07T07:02:27.697Z,12.27
2017-08-07T07:03:25.193Z,12.28
2017-08-07T07:04:22.576Z,12.31
2017-08-07T07:05:19.820Z,12.32
2017-08-07T07:06:17.093Z,12.33
2017-08-07T07:07:14.365Z,12.35
2017-08-07T07:08:11.669Z,12.38
2017-08-07T07:09:08.981Z,12.40
2017-08-07T07:10:06.360Z,12.42
2017-08-07T07:11:03.608Z,12.43
2017-08-07T07:12:01.192Z,12.47
2017-08-07T07:12:58.449Z,12.48
2017-08-07T07:13:55.735Z,12.50
2017-08-07T07:14:53.008Z,12.51
2017-08-07T07:15:50.301Z,12.53
2017-08-07T07:16:47.553Z,12.57
2017-08-07T07:17:44.839Z,12.59
2017-08-07T07:18:42.080Z,12.62
2017-08-07T07:19:39.392Z,12.63
2017-08-07T07:20:36.634Z,12.66
2017-08-07T07:21:33.900Z,12.68
2017-08-07T07:22:31.112Z,12.70
2017-08-07T07:23:28.576Z,12.72
2017-08-07T07:24:25.834Z,12.74
2017-08-07T07:25:23.149Z,12.77
2017-08-07T07:26:20.438Z,12.80
2017-08-07T07:27:17.788Z,12.83
2017-08-07T07:28:15.093Z,12.85
2017-08-07T07:29:12.486Z,12.88
2017-08-07T07:30:10.082Z,12.91
2017-08-07T07:31:07.371Z,12.93
2017-08-07T07:32:04.639Z,12.95
2017-08-07T07:33:01.924Z,12.98
2017-08-07T07:33:59.160Z,13.00
2017-08-07T07:34:56.420Z,13.02
2017-08-07T07:35:53.723Z,13.06
2017-08-07T07:36:50.988Z,13.08
2017-08-07T07:37:48.216Z,13.10
2017-08-07T07:38:45.476Z,13.13
2017-08-07T07:39:42.706Z,13.15
2017-08-07T07:40:40.016Z,13.18
2017-08-07T07:41:37.230Z,13.21
2017-08-07T07:42:34.481Z,13.23
2017-08-07T07:43:31.708Z,13.26
2017-08-07T07:44:29.043Z,13.28
2017-08-07T07:45:26.268Z,13.30
2017-08-07T07:46:23.548Z,13.33
2017-08-07T07:47:20.768Z,13.34
2017-08-07T07:48:23.039Z,13.37
2017-08-07T07:49:20.327Z,13.39
2017-08-07T07:50:17.580Z,13.42
2017-08-07T07:51:14.893Z,13.45
2017-08-07T07:52:12.113Z,13.47
2017-08-07T07:53:09.377Z,13.50
2017-08-07T07:54:13.281Z,13.52
2017-08-07T07:55:10.520Z,13.54
2017-08-07T07:56:07.800Z,13.55
2017-08-07T07:57:05.024Z,13.57
2017-08-07T07:58:02.281Z,13.60
2017-08-07T07:58:59.500Z,13.61
2017-08-07T07:59:56.770Z,13.66
2017-08-07T08:00:54.037Z,13.67
2017-08-07T08:01:51.280Z,13.69
2017-08-07T08:02:48.512Z,13.72
2017-08-07T08:03:45.829Z,13.73
2017-08-07T08:04:43.481Z,13.75
2017-08-07T08:05:40.732Z,13.78
2017-08-07T08:06:37.961Z,13.80
2017-08-07T08:07:35.224Z,13.83
2017-08-07T08:08:32.453Z,13.85
2017-08-07T08:09:29.745Z,13.87
2017-08-07T08:10:26.977Z,13.89
2017-08-07T08:11:24.261Z,13.92
2017-08-07T08:12:21.536Z,13.94
2017-08-07T08:13:18.789Z,13.96
2017-08-07T08:14:16.074Z,13.98
2017-08-07T08:15:13.414Z,14.00
2017-08-07T08:16:10.629Z,14.03
2017-08-07T08:17:07.900Z,14.04
2017-08-07T08:18:05.154Z,14.08
2017-08-07T08:19:02.400Z,14.10
2017-08-07T08:19:59.665Z,14.11
2017-08-07T08:20:56.930Z,14.13
2017-08-07T08:21:54.162Z,14.15
2017-08-07T08:22:51.412Z,14.18
2017-08-07T08:23:48.718Z,14.21
2017-08-07T08:24:45.969Z,14.24
2017-08-07T08:25:43.226Z,14.25
2017-08-07T08:26:40.517Z,14.27
2017-08-07T08:27:37.780Z,14.30
2017-08-07T08:28:35.177Z,14.32
2017-08-07T08:29:32.457Z,14.35
2017-08-07T08:30:29.765Z,14.38
2017-08-07T08:31:27.007Z,14.39
2017-08-07T08:32:24.312Z,14.45
2017-08-07T08:33:21.560Z,14.47
2017-08-07T08:34:18.848Z,14.50
2017-08-07T08:35:16.116Z,14.53
2017-08-07T08:36:13.441Z,14.56
2017-08-07T08:37:10.692Z,14.60
2017-08-07T08:38:08.011Z,14.61
2017-08-07T08:39:05.265Z,14.63
2017-08-07T08:40:02.621Z,14.67
2017-08-07T08:40:59.885Z,14.69
2017-08-07T08:41:57.165Z,14.71
2017-08-07T08:42:54.407Z,14.73
2017-08-07T08:43:51.663Z,14.76
2017-08-07T08:44:48.898Z,14.79
2017-08-07T08:45:46.194Z,14.80
2017-08-07T08:46:43.442Z,14.85
2017-08-07T08:47:40.708Z,14.87
2017-08-07T08:48:37.952Z,14.89
2017-08-07T08:49:35.241Z,14.92
2017-08-07T08:50:32.521Z,14.96
2017-08-07T08:51:29.781Z,14.98
2017-08-07T08:52:27.009Z,15.00
2017-08-07T08:53:24.266Z,15.03
2017-08-07T08:54:21.517Z,15.04
2017-08-07T08:55:19.120Z,15.09
2017-08-07T08:56:16.589Z,15.11
2017-08-07T08:57:13.845Z,15.13
2017-08-07T08:58:11.052Z,15.17
2017-08-07T08:59:08.310Z,15.18
2017-08-07T09:00:05.552Z,15.22
2017-08-07T09:01:02.834Z,15.23
2017-08-07T09:02:00.078Z,15.27
2017-08-07T09:02:57.356Z,15.31
2017-08-07T09:03:54.593Z,15.33
2017-08-07T09:04:51.874Z,15.35
2017-08-07T09:05:49.189Z,15.37
2017-08-07T09:06:46.485Z,15.41
2017-08-07T09:07:43.736Z,15.45
2017-08-07T09:08:41.025Z,15.46
2017-08-07T09:09:38.252Z,15.50
2017-08-07T09:10:35.504Z,15.52
2017-08-07T09:11:32.753Z,15.54
2017-08-07T09:12:30.024Z,15.58
2017-08-07T09:13:27.245Z,15.60
2017-08-07T09:14:24.510Z,15.63
2017-08-07T09:15:21.781Z,15.65
2017-08-07T09:16:19.081Z,15.69
2017-08-07T09:17:16.301Z,15.72
2017-08-07T09:18:13.558Z,15.73
2017-08-07T09:19:10.806Z,15.76
2017-08-07T09:20:08.073Z,15.79
2017-08-07T09:21:05.346Z,15.81
2017-08-07T09:22:02.629Z,15.84
2017-08-07T09:22:59.968Z,15.87
2017-08-07T09:23:57.232Z,15.91
2017-08-07T09:24:54.476Z,15.93
2017-08-07T09:25:51.800Z,15.95
2017-08-07T09:26:49.124Z,15.97
2017-08-07T09:27:46.385Z,16.00
2017-08-07T09:28:43.647Z,16.04
2017-08-07T09:29:40.970Z,16.07
2017-08-07T09:30:38.376Z,16.10
2017-08-07T09:31:35.696Z,16.12
2017-08-07T09:32:32.960Z,16.14
2017-08-07T09:33:30.233Z,16.17
2017-08-07T09:34:27.481Z,16.20
2017-08-07T09:35:24.740Z,16.23
2017-08-07T09:36:21.960Z,16.24
2017-08-07T09:37:19.656Z,16.28
2017-08-07T09:38:16.889Z,16.31
2017-08-07T09:39:14.161Z,16.32
2017-08-07T09:40:11.429Z,16.36
2017-08-07T09:41:08.676Z,16.40
2017-08-07T09:42:05.929Z,16.42
2017-08-07T09:43:03.207Z,16.46
2017-08-07T09:44:00.434Z,16.47
2017-08-07T09:44:57.690Z,16.50
2017-08-07T09:45:54.899Z,16.53
2017-08-07T09:46:52.820Z,16.55
2017-08-07T09:47:50.048Z,16.57
2017-08-07T09:48:47.304Z,16.61
2017-08-07T09:49:44.542Z,16.64
2017-08-07T09:50:41.817Z,16.67
2017-08-07T09:51:39.033Z,16.70
2017-08-07T09:52:36.551Z,16.71
2017-08-07T09:53:33.805Z,16.75
2017-08-07T09:54:31.061Z,16.77
2017-08-07T09:55:28.302Z,16.79
2017-08-07T09:56:25.544Z,16.82
2017-08-07T09:57:22.850Z,16.85
2017-08-07T09:58:20.324Z,16.87
2017-08-07T09:59:17.570Z,16.91
2017-08-07T10:00:14.839Z,16.94
2017-08-07T10:01:12.077Z,16.97
2017-08-07T10:02:09.361Z,17.00
2017-08-07T10:03:06.609Z,17.03
2017-08-07T10:04:03.925Z,17.07
2017-08-07T10:05:01.156Z,17.10
2017-08-07T10:05:58.450Z,17.13
2017-08-07T10:06:55.725Z,17.17
2017-08-07T10:07:53.051Z,17.20
2017-08-07T10:08:50.344Z,17.23
2017-08-07T10:09:47.737Z,17.27
2017-08-07T10:10:45.713Z,17.30
2017-08-07T10:11:42.973Z,17.33
2017-08-07T10:12:40.273Z,17.36
2017-08-07T10:13:37.541Z,17.40
2017-08-07T10:14:34.788Z,17.42
2017-08-07T10:15:32.054Z,17.45
2017-08-07T10:16:29.297Z,17.49
2017-08-07T10:17:26.571Z,17.52
2017-08-07T10:18:23.804Z,17.54
2017-08-07T10:19:21.079Z,17.57
2017-08-07T10:20:18.316Z,17.59
2017-08-07T10:21:15.602Z,17.61
2017-08-07T10:22:13.001Z,17.63
2017-08-07T10:23:11.856Z,17.66
2017-08-07T10:24:09.092Z,17.68
2017-08-07T10:25:06.390Z,17.70
2017-08-07T10:26:03.640Z,17.73
2017-08-07T10:27:01.369Z,17.75
2017-08-07T10:27:58.668Z,17.78
2017-08-07T10:28:57.028Z,17.81
2017-08-07T10:29:54.281Z,17.84
2017-08-07T10:30:51.541Z,17.85
2017-08-07T10:31:48.768Z,17.89
2017-08-07T10:32:46.077Z,17.91
2017-08-07T10:33:43.361Z,17.93
2017-08-07T10:34:40.637Z,17.96
2017-08-07T10:35:37.859Z,17.97
2017-08-07T10:36:35.113Z,18.01
2017-08-07T10:37:32.349Z,18.03
2017-08-07T10:38:29.628Z,18.07
2017-08-07T10:39:26.851Z,18.09
2017-08-07T10:40:24.104Z,18.11
2017-08-07T10:41:21.320Z,18.13
2017-08-07T10:42:18.568Z,18.16
2017-08-07T10:43:15.800Z,18.18
2017-08-07T10:44:13.086Z,18.21
2017-08-07T10:45:10.311Z,18.24
2017-08-07T10:46:07.553Z,18.26
2017-08-07T10:47:04.788Z,18.28
2017-08-07T10:48:02.040Z,18.30
2017-08-07T10:48:59.296Z,18.32
2017-08-07T10:49:56.552Z,18.34
2017-08-07T10:50:53.780Z,18.38
2017-08-07T10:51:51.132Z,18.39
2017-08-07T10:52:48.348Z,18.42
2017-08-07T10:53:45.732Z,18.44
2017-08-07T10:54:42.956Z,18.45
2017-08-07T10:55:40.251Z,18.49
2017-08-07T10:56:37.497Z,18.50
2017-08-07T10:57:34.769Z,18.52
2017-08-07T10:58:32.021Z,18.54
2017-08-07T10:59:29.284Z,18.55
2017-08-07T11:00:26.513Z,18.59
2017-08-07T11:01:23.764Z,18.61
2017-08-07T11:02:20.981Z,18.62
2017-08-07T11:03:18.271Z,18.64
2017-08-07T11:04:15.532Z,18.68
2017-08-07T11:05:12.793Z,18.69
2017-08-07T11:06:10.012Z,18.71
2017-08-07T11:07:07.281Z,18.72
2017-08-07T11:08:04.513Z,18.74
2017-08-07T11:09:01.788Z,18.74
2017-08-07T11:09:59.056Z,18.76
2017-08-07T11:10:56.308Z,18.78
2017-08-07T11:11:53.532Z,18.80
2017-08-07T11:12:50.812Z,18.81
2017-08-07T11:13:48.080Z,18.85
2017-08-07T11:14:45.340Z,18.87
2017-08-07T11:15:42.572Z,18.90
2017-08-07T11:16:39.937Z,18.92
2017-08-07T11:17:37.164Z,18.94
2017-08-07T11:18:34.418Z,18.98
2017-08-07T11:19:31.664Z,18.99
2017-08-07T11:20:28.913Z,19.01
2017-08-07T11:21:26.171Z,19.04
2017-08-07T11:22:23.420Z,19.06
2017-08-07T11:23:20.654Z,19.09
2017-08-07T11:24:17.933Z,19.12
2017-08-07T11:25:15.174Z,19.15
2017-08-07T11:26:12.431Z,19.15
2017-08-07T11:27:09.660Z,19.17
2017-08-07T11:28:06.912Z,19.19
2017-08-07T11:29:04.146Z,19.19
2017-08-07T11:30:01.440Z,19.22
2017-08-07T11:30:58.680Z,19.24
2017-08-07T11:31:55.929Z,19.25
2017-08-07T11:32:53.165Z,19.27
2017-08-07T11:33:50.477Z,19.29
2017-08-07T11:34:47.744Z,19.30
2017-08-07T11:35:45.002Z,19.33
2017-08-07T11:36:42.248Z,19.35
2017-08-07T11:37:39.508Z,19.38
2017-08-07T11:38:36.727Z,19.39
2017-08-07T11:39:34.258Z,19.41
2017-08-07T11:40:31.483Z,19.42
2017-08-07T11:41:28.725Z,19.45
2017-08-07T11:42:25.956Z,19.48
2017-08-07T11:43:23.234Z,19.48
2017-08-07T11:44:20.472Z,19.50
2017-08-07T11:45:17.752Z,19.52
2017-08-07T11:46:14.984Z,19.54
2017-08-07T11:47:12.235Z,19.56
2017-08-07T11:48:09.480Z,19.58
2017-08-07T11:49:06.729Z,19.59
2017-08-07T11:50:03.967Z,19.60
2017-08-07T11:51:01.225Z,19.62
2017-08-07T11:51:58.460Z,19.65
2017-08-07T11:52:55.717Z,19.66
2017-08-07T11:53:52.956Z,19.68
2017-08-07T11:54:50.233Z,19.69
2017-08-07T11:55:47.465Z,19.70
2017-08-07T11:56:44.716Z,19.72
2017-08-07T11:57:41.948Z,19.76
2017-08-07T11:58:39.204Z,19.77
2017-08-07T11:59:36.420Z,19.80
2017-08-07T12:00:33.698Z,19.84
2017-08-07T12:01:30.904Z,19.85
2017-08-07T12:02:28.196Z,19.85
2017-08-07T12:03:25.445Z,19.88
2017-08-07T12:04:22.705Z,19.89
2017-08-07T12:05:19.957Z,19.91
2017-08-07T12:06:17.219Z,19.93
2017-08-07T12:07:14.432Z,19.94
2017-08-07T12:08:11.668Z,19.96
2017-08-07T12:09:08.897Z,19.99
2017-08-07T12:10:06.185Z,20.01
2017-08-07T12:11:03.424Z,20.03
2017-08-07T12:12:00.744Z,20.05
2017-08-07T12:12:57.985Z,20.06
2017-08-07T12:13:55.230Z,20.07
2017-08-07T12:14:52.457Z,20.09
2017-08-07T12:15:49.732Z,20.11
2017-08-07T12:16:46.953Z,20.13
2017-08-07T12:17:44.253Z,20.15